Xin Dan Dong — BPBY — position and weather

sailwx.info

Track history (hours):
 
Tides and Currents Weather Stations Pressure Air Temp Water Temp Dewpoint Dewpoint Depression Visibility Wind Speed Wind Dir Waves Ship Positions

Xin Dan Dong

Last reported at 2014-Aug-29 00:32 UTC. Time now 2014-Aug-29 01:29 UTC.
Position N 49°01' W 123°09'.

Length 263 m; draft 12.1 m.

Type: Cargo ship. MMSI: 413153000.

Date/timePositionNaut miles runAvg speedWind from/ knotsBaromVisibWave heightAir tempDewpointWater temp
2014-Aug-29 00:32N 49°01' W 123°09'0 0.0
2014-Aug-28 23:32N 49°01' W 123°09'0 0.0
2014-Aug-28 22:32N 49°01' W 123°09'0 0.0
2014-Aug-28 21:32N 49°01' W 123°09'0 0.0
2014-Aug-28 20:32N 49°01' W 123°09'0 0.0
2014-Aug-28 19:32N 49°01' W 123°09'0 0.0
2014-Aug-28 18:32N 49°01' W 123°09'0 0.0
2014-Aug-28 17:32N 49°01' W 123°09'0 0.0
2014-Aug-28 16:32N 49°01' W 123°09'0 0.0
2014-Aug-28 15:32N 49°01' W 123°09'0 0.0
2014-Aug-28 14:32N 49°01' W 123°09'0 0.0
2014-Aug-28 13:32N 49°01' W 123°09'0 0.0
2014-Aug-28 12:32N 49°01' W 123°09'0 0.0
2014-Aug-28 11:32N 49°01' W 123°09'0 0.0
2014-Aug-28 10:32N 49°01' W 123°09'2 1.9
2014-Aug-28 09:33N 48°59' W 123°09'6 5.6
2014-Aug-28 08:33N 48°55' W 123°04'1414.1
2014-Aug-28 07:34N 48°42' W 123°14'1716.9
2014-Aug-28 06:34N 48°25' W 123°11'1211.7
2014-Aug-28 05:33N 48°18' W 123°25'1010.0
2014-Aug-28 04:34N 48°09' W 123°18'1918.9
2014-Aug-28 03:34N 48°12' W 122°50'1918.5
2014-Aug-28 02:33N 47°57' W 122°33'1818.0
2014-Aug-28 01:34N 47°40' W 122°27'6 6.4
2014-Aug-28 00:33N 47°35' W 122°21'0 0.0
2014-Aug-27 23:33N 47°35' W 122°21'0 0.0
2014-Aug-27 22:33N 47°35' W 122°21'0 0.0
2014-Aug-27 21:33N 47°35' W 122°21'0 0.0
2014-Aug-27 20:33N 47°35' W 122°21'0 0.0
2014-Aug-27 19:33N 47°35' W 122°21'0 0.0
2014-Aug-27 18:33N 47°35' W 122°21'0 0.0
2014-Aug-27 17:33N 47°35' W 122°21'0 0.0
2014-Aug-27 16:33N 47°35' W 122°21'0 0.0
2014-Aug-27 15:33N 47°35' W 122°21'0 0.0
2014-Aug-27 14:33N 47°35' W 122°21'0 0.0
2014-Aug-27 13:33N 47°35' W 122°21'0 0.0
2014-Aug-27 12:33N 47°35' W 122°21'0 0.0
2014-Aug-27 11:33N 47°35' W 122°21'0 0.0
2014-Aug-27 10:33N 47°35' W 122°21'0 0.0
2014-Aug-27 09:33N 47°35' W 122°21'0 0.0
2014-Aug-27 08:33N 47°35' W 122°21'0 0.0
2014-Aug-27 07:33N 47°35' W 122°21'0 0.0
2014-Aug-27 06:33N 47°35' W 122°21'0 0.0
2014-Aug-27 05:33N 47°35' W 122°21'0 0.0
2014-Aug-27 04:33N 47°35' W 122°21'0 0.0
2014-Aug-27 03:33N 47°35' W 122°21'0 0.0
2014-Aug-27 02:33N 47°35' W 122°21'0 0.0
2014-Aug-27 01:33N 47°35' W 122°21'0 0.0
2014-Aug-27 00:33N 47°35' W 122°21'0 0.0
2014-Aug-26 23:33N 47°35' W 122°21'0 0.0
2014-Aug-26 22:33N 47°35' W 122°21'0 0.0
2014-Aug-26 21:33N 47°35' W 122°21'0 0.0
2014-Aug-26 20:33N 47°35' W 122°21'0 0.0
2014-Aug-26 19:33N 47°35' W 122°21'0 0.0
2014-Aug-26 18:33N 47°35' W 122°21'0 0.0
2014-Aug-26 17:33N 47°35' W 122°21'0 0.0
2014-Aug-26 16:33N 47°35' W 122°21'0 0.0
2014-Aug-26 15:33N 47°35' W 122°21'0 0.0
2014-Aug-26 14:33N 47°35' W 122°21'0 0.0
2014-Aug-26 13:33N 47°35' W 122°21'0 0.0
2014-Aug-26 12:33N 47°35' W 122°21'0 0.0
2014-Aug-26 11:33N 47°35' W 122°21'1 1.0
2014-Aug-26 10:33N 47°36' W 122°22'1111.1
2014-Aug-26 09:34N 47°46' W 122°27'1818.1
2014-Aug-26 08:33N 48°02' W 122°39'1817.8
2014-Aug-26 07:34N 48°12' W 123°01'1616.3
2014-Aug-26 06:34N 48°11' W 123°26'1515.5
2014-Aug-26 05:34N 48°13' W 123°49'1413.6
2014-Aug-26 04:33N 48°17' W 124°08'1211.7
2014-Aug-26 03:33N 48°23' W 124°24'10 9.7
2014-Aug-26 02:33N 48°27' W 124°37'10 9.2
2014-Aug-26 01:29N 48°29' W 124°52'1010.5
2014-Aug-26 00:33N 48°29' W 125°07'1313.4
2014-Aug-25 23:33N 48°29' W 125°27'1413.5
2014-Aug-25 22:33N 48°29' W 125°47'1313.5
2014-Aug-25 21:34N 48°29' W 126°08'4413.0
2014-Aug-25 18:08N 48°29' W 127°15'  
Track history (hours):
 
Tides and Currents Weather Stations Pressure Air Temp Water Temp Dewpoint Dewpoint Depression Visibility Wind Speed Wind Dir Waves Ship Positions

Xin Dan Dong

Last reported at 2014-Aug-29 00:32 UTC. Time now 2014-Aug-29 01:29 UTC.
Position N 49°01' W 123°09'.

Length 263 m; draft 12.1 m.

Type: Cargo ship. MMSI: 413153000.

Date/timePositionNaut miles runAvg speedWind from/ knotsBaromVisibWave heightAir tempDewpointWater temp
2014-Aug-29 00:32N 49°01' W 123°09'0 0.0
2014-Aug-28 23:32N 49°01' W 123°09'0 0.0
2014-Aug-28 22:32N 49°01' W 123°09'0 0.0
2014-Aug-28 21:32N 49°01' W 123°09'0 0.0
2014-Aug-28 20:32N 49°01' W 123°09'0 0.0
2014-Aug-28 19:32N 49°01' W 123°09'0 0.0
2014-Aug-28 18:32N 49°01' W 123°09'0 0.0
2014-Aug-28 17:32N 49°01' W 123°09'0 0.0
2014-Aug-28 16:32N 49°01' W 123°09'0 0.0
2014-Aug-28 15:32N 49°01' W 123°09'0 0.0
2014-Aug-28 14:32N 49°01' W 123°09'0 0.0
2014-Aug-28 13:32N 49°01' W 123°09'0 0.0
2014-Aug-28 12:32N 49°01' W 123°09'0 0.0
2014-Aug-28 11:32N 49°01' W 123°09'0 0.0
2014-Aug-28 10:32N 49°01' W 123°09'2 1.9
2014-Aug-28 09:33N 48°59' W 123°09'6 5.6
2014-Aug-28 08:33N 48°55' W 123°04'1414.1
2014-Aug-28 07:34N 48°42' W 123°14'1716.9
2014-Aug-28 06:34N 48°25' W 123°11'1211.7
2014-Aug-28 05:33N 48°18' W 123°25'1010.0
2014-Aug-28 04:34N 48°09' W 123°18'1918.9
2014-Aug-28 03:34N 48°12' W 122°50'1918.5
2014-Aug-28 02:33N 47°57' W 122°33'1818.0
2014-Aug-28 01:34N 47°40' W 122°27'6 6.4
2014-Aug-28 00:33N 47°35' W 122°21'0 0.0
2014-Aug-27 23:33N 47°35' W 122°21'0 0.0
2014-Aug-27 22:33N 47°35' W 122°21'0 0.0
2014-Aug-27 21:33N 47°35' W 122°21'0 0.0
2014-Aug-27 20:33N 47°35' W 122°21'0 0.0
2014-Aug-27 19:33N 47°35' W 122°21'0 0.0
2014-Aug-27 18:33N 47°35' W 122°21'0 0.0
2014-Aug-27 17:33N 47°35' W 122°21'0 0.0
2014-Aug-27 16:33N 47°35' W 122°21'0 0.0
2014-Aug-27 15:33N 47°35' W 122°21'0 0.0
2014-Aug-27 14:33N 47°35' W 122°21'0 0.0
2014-Aug-27 13:33N 47°35' W 122°21'0 0.0
2014-Aug-27 12:33N 47°35' W 122°21'0 0.0
2014-Aug-27 11:33N 47°35' W 122°21'0 0.0
2014-Aug-27 10:33N 47°35' W 122°21'0 0.0
2014-Aug-27 09:33N 47°35' W 122°21'0 0.0
2014-Aug-27 08:33N 47°35' W 122°21'0 0.0
2014-Aug-27 07:33N 47°35' W 122°21'0 0.0
2014-Aug-27 06:33N 47°35' W 122°21'0 0.0
2014-Aug-27 05:33N 47°35' W 122°21'0 0.0
2014-Aug-27 04:33N 47°35' W 122°21'0 0.0
2014-Aug-27 03:33N 47°35' W 122°21'0 0.0
2014-Aug-27 02:33N 47°35' W 122°21'0 0.0
2014-Aug-27 01:33N 47°35' W 122°21'0 0.0
2014-Aug-27 00:33N 47°35' W 122°21'0 0.0
2014-Aug-26 23:33N 47°35' W 122°21'0 0.0
2014-Aug-26 22:33N 47°35' W 122°21'0 0.0
2014-Aug-26 21:33N 47°35' W 122°21'0 0.0
2014-Aug-26 20:33N 47°35' W 122°21'0 0.0
2014-Aug-26 19:33N 47°35' W 122°21'0 0.0
2014-Aug-26 18:33N 47°35' W 122°21'0 0.0
2014-Aug-26 17:33N 47°35' W 122°21'0 0.0
2014-Aug-26 16:33N 47°35' W 122°21'0 0.0
2014-Aug-26 15:33N 47°35' W 122°21'0 0.0
2014-Aug-26 14:33N 47°35' W 122°21'0 0.0
2014-Aug-26 13:33N 47°35' W 122°21'0 0.0
2014-Aug-26 12:33N 47°35' W 122°21'0 0.0
2014-Aug-26 11:33N 47°35' W 122°21'1 1.0
2014-Aug-26 10:33N 47°36' W 122°22'1111.1
2014-Aug-26 09:34N 47°46' W 122°27'1818.1
2014-Aug-26 08:33N 48°02' W 122°39'1817.8
2014-Aug-26 07:34N 48°12' W 123°01'1616.3
2014-Aug-26 06:34N 48°11' W 123°26'1515.5
2014-Aug-26 05:34N 48°13' W 123°49'1413.6
2014-Aug-26 04:33N 48°17' W 124°08'1211.7
2014-Aug-26 03:33N 48°23' W 124°24'10 9.7
2014-Aug-26 02:33N 48°27' W 124°37'10 9.2
2014-Aug-26 01:29N 48°29' W 124°52'1010.5
2014-Aug-26 00:33N 48°29' W 125°07'1313.4
2014-Aug-25 23:33N 48°29' W 125°27'1413.5
2014-Aug-25 22:33N 48°29' W 125°47'1313.5
2014-Aug-25 21:34N 48°29' W 126°08'4413.0
2014-Aug-25 18:08N 48°29' W 127°15'  

Dump ship's entire track history